Time;durP1;ratioP1;P1;durP2;ratioP2;P2;SDS_P1;SDS_P2;PMS_P1;PMS_P2;Temp;Humidity;BMP_temperature;BMP_pressure;BME280_temperature;BME280_humidity;BME280_pressure;Samples;Min_cycle;Max_cycle;Signal;HPM_P1;HPM_P2
2022/12/21 00:01:07;;;;;;;;;;;8.20;99.90;;;;;;5010264;28;38484;-69
2022/12/21 00:03:34;;;;;;;;;;;8.20;99.90;;;;;;5063830;28;19931;-71
2022/12/21 00:06:00;;;;;;;;;;;8.10;99.90;;;;;;4997558;28;154734;-71
2022/12/21 00:08:26;;;;;;;;;;;8.10;99.90;;;;;;5046962;28;19924;-70
2022/12/21 00:10:57;;;;;;;;;;;8.10;99.90;;;;;;5030647;28;142345;-72
2022/12/21 00:13:23;;;;;;;;;;;8.10;99.90;;;;;;5056788;28;20507;-71
2022/12/21 00:16:02;;;;;;;;;;;8.10;99.90;;;;;;5028293;28;136534;-71
2022/12/21 00:18:30;;;;;;;;;;;8.10;99.90;;;;;;5016768;28;19932;-70
2022/12/21 00:20:57;;;;;;;;;;;8.10;99.90;;;;;;5001745;28;198751;-71
2022/12/21 00:23:23;;;;;;;;;;;8.00;99.90;;;;;;5051994;28;19928;-71
2022/12/21 00:25:49;;;;;;;;;;;8.00;99.90;;;;;;5005522;28;83249;-72
2022/12/21 00:28:15;;;;;;;;;;;8.00;99.90;;;;;;5057981;28;19921;-71
2022/12/21 00:30:41;;;;;;;;;;;8.00;99.90;;;;;;4997870;28;207664;-71
2022/12/21 00:33:07;;;;;;;;;;;8.00;99.90;;;;;;5033873;28;19928;-71
2022/12/21 00:35:33;;;;;;;;;;;8.00;99.90;;;;;;5008929;28;172855;-71
2022/12/21 00:37:59;;;;;;;;;;;8.00;99.90;;;;;;5045881;28;19932;-71
2022/12/21 00:40:25;;;;;;;;;;;8.00;99.90;;;;;;5007600;28;159919;-72
2022/12/21 00:42:51;;;;;;;;;;;8.00;99.90;;;;;;5046042;28;19921;-70
2022/12/21 00:45:17;;;;;;;;;;;7.90;99.90;;;;;;5010918;28;207665;-70
2022/12/21 00:47:43;;;;;;;;;;;7.90;99.90;;;;;;5045953;28;19970;-72
2022/12/21 00:50:09;;;;;;;;;;;7.90;99.90;;;;;;4996063;28;207699;-71
2022/12/21 00:52:35;;;;;;;;;;;7.90;99.90;;;;;;5015274;28;19924;-71
2022/12/21 00:55:01;;;;;;;;;;;8.00;99.90;;;;;;5036864;28;208851;-71
2022/12/21 00:57:28;;;;;;;;;;;7.90;99.90;;;;;;5050261;28;19928;-71
2022/12/21 00:59:54;;;;;;;;;;;7.90;99.90;;;;;;5041016;28;207276;-71
2022/12/21 01:02:20;;;;;;;;;;;7.90;99.90;;;;;;5001034;28;215757;-71
2022/12/21 01:04:46;;;;;;;;;;;7.90;99.90;;;;;;5052904;28;20382;-71
2022/12/21 01:07:12;;;;;;;;;;;7.90;99.90;;;;;;4966146;28;156474;-71
2022/12/21 01:09:38;;;;;;;;;;;7.90;99.90;;;;;;5069110;28;19986;-72
2022/12/21 01:12:04;;;;;;;;;;;7.80;99.90;;;;;;4976638;28;208316;-71
2022/12/21 01:14:30;;;;;;;;;;;7.80;99.90;;;;;;5052679;28;20291;-71
2022/12/21 01:16:56;;;;;;;;;;;7.80;99.90;;;;;;4979510;28;168297;-71
2022/12/21 01:19:22;;;;;;;;;;;7.80;99.90;;;;;;5070075;28;20031;-71
2022/12/21 01:21:48;;;;;;;;;;;7.80;99.90;;;;;;5007417;28;204299;-71
2022/12/21 01:24:14;;;;;;;;;;;7.70;99.90;;;;;;5053041;28;19935;-72
2022/12/21 01:26:40;;;;;;;;;;;7.70;99.90;;;;;;4966799;28;147931;-71
2022/12/21 01:29:06;;;;;;;;;;;7.60;99.90;;;;;;5050824;28;19924;-71
2022/12/21 01:31:32;;;;;;;;;;;7.60;99.90;;;;;;5010476;28;174553;-71
2022/12/21 01:33:58;;;;;;;;;;;7.50;99.90;;;;;;5053474;28;19939;-70
2022/12/21 01:36:24;;;;;;;;;;;7.50;99.90;;;;;;5013865;28;189096;-70
2022/12/21 01:38:50;;;;;;;;;;;7.50;99.90;;;;;;5048295;28;19944;-71
2022/12/21 01:41:17;;;;;;;;;;;7.50;99.90;;;;;;5007424;28;89449;-71
2022/12/21 01:43:50;;;;;;;;;;;7.50;99.90;;;;;;5045361;28;20413;-71
2022/12/21 01:46:18;;;;;;;;;;;7.50;99.90;;;;;;5015599;28;176784;-71
2022/12/21 01:48:48;;;;;;;;;;;7.50;99.90;;;;;;5038485;28;19929;-71
2022/12/21 01:51:14;;;;;;;;;;;7.50;99.90;;;;;;4989182;28;158282;-69
2022/12/21 01:53:48;;;;;;;;;;;7.50;99.90;;;;;;5048769;28;19936;-69
2022/12/21 01:56:17;;;;;;;;;;;7.40;99.90;;;;;;5010193;28;208733;-70
2022/12/21 01:58:43;;;;;;;;;;;7.50;99.90;;;;;;5066493;28;19928;-70
2022/12/21 02:01:09;;;;;;;;;;;7.50;99.90;;;;;;4995311;28;208516;-70
2022/12/21 02:03:49;;;;;;;;;;;7.50;99.90;;;;;;5048266;28;19927;-70
2022/12/21 02:06:22;;;;;;;;;;;7.40;99.90;;;;;;5007218;28;216713;-70
2022/12/21 02:08:48;;;;;;;;;;;7.40;99.90;;;;;;5053604;28;19928;-71
2022/12/21 02:11:15;;;;;;;;;;;7.50;99.90;;;;;;5023094;28;209316;-70
2022/12/21 02:13:41;;;;;;;;;;;7.50;99.90;;;;;;5043742;28;19928;-70
2022/12/21 02:16:16;;;;;;;;;;;7.50;99.90;;;;;;4990305;28;141319;-70
2022/12/21 02:19:01;;;;;;;;;;;7.50;99.90;;;;;;5050375;28;19925;-70
2022/12/21 02:21:40;;;;;;;;;;;7.50;99.90;;;;;;4990659;28;149812;-69
2022/12/21 02:24:12;;;;;;;;;;;7.50;99.90;;;;;;5047281;28;19928;-69
2022/12/21 02:27:04;;;;;;;;;;;7.50;99.90;;;;;;5011489;28;206263;-70
2022/12/21 02:29:36;;;;;;;;;;;7.50;99.90;;;;;;5052748;28;19936;-69
2022/12/21 02:32:13;;;;;;;;;;;7.50;99.90;;;;;;5015609;28;56040;-69
2022/12/21 02:34:54;;;;;;;;;;;7.40;99.90;;;;;;5063287;28;20004;-70
2022/12/21 02:37:41;;;;;;;;;;;7.40;99.90;;;;;;5003512;28;211820;-70
2022/12/21 02:40:07;;;;;;;;;;;7.40;99.90;;;;;;4989922;28;208616;-70
2022/12/21 02:45:37;;;;;;;;;;;7.40;99.90;;;;;;5035193;28;144650;-70
2022/12/21 02:48:23;;;;;;;;;;;7.30;99.90;;;;;;5048664;28;19931;-70
2022/12/21 02:50:53;;;;;;;;;;;7.30;99.90;;;;;;4996878;28;204139;-70
2022/12/21 02:53:22;;;;;;;;;;;7.20;99.90;;;;;;5060578;28;20393;-70
2022/12/21 02:55:48;;;;;;;;;;;7.20;99.90;;;;;;5023885;28;32938;-70
2022/12/21 02:58:16;;;;;;;;;;;7.20;99.90;;;;;;5054221;28;20614;-70
2022/12/21 03:00:45;;;;;;;;;;;7.20;99.90;;;;;;4999494;28;152885;-70
2022/12/21 03:03:49;;;;;;;;;;;7.20;99.90;;;;;;5039944;28;19935;-70
2022/12/21 03:06:23;;;;;;;;;;;7.20;99.90;;;;;;4995386;28;128942;-70
2022/12/21 03:08:52;;;;;;;;;;;7.20;99.90;;;;;;5049319;28;19920;-70
2022/12/21 03:11:18;;;;;;;;;;;7.20;99.90;;;;;;5001944;28;156263;-71
2022/12/21 03:14:00;;;;;;;;;;;7.20;99.90;;;;;;5052975;28;20024;-69
2022/12/21 03:16:30;;;;;;;;;;;7.20;99.90;;;;;;5011990;28;210435;-70
2022/12/21 03:18:56;;;;;;;;;;;7.20;99.90;;;;;;5050663;28;19920;-70
2022/12/21 03:21:26;;;;;;;;;;;7.20;99.90;;;;;;5018257;28;205938;-70
2022/12/21 03:23:56;;;;;;;;;;;7.20;99.90;;;;;;5067059;28;19925;-71
2022/12/21 03:26:32;;;;;;;;;;;7.10;99.90;;;;;;5005052;28;211517;-70
2022/12/21 03:29:00;;;;;;;;;;;7.10;99.90;;;;;;5056486;28;20416;-71
2022/12/21 03:31:33;;;;;;;;;;;7.00;99.90;;;;;;4987675;28;173032;-71
2022/12/21 03:34:05;;;;;;;;;;;7.00;99.90;;;;;;5063770;28;20058;-69
2022/12/21 03:36:33;;;;;;;;;;;7.00;99.90;;;;;;5005606;28;136170;-70
2022/12/21 03:39:02;;;;;;;;;;;6.90;99.90;;;;;;5049234;28;19925;-71
2022/12/21 03:41:51;;;;;;;;;;;6.90;99.90;;;;;;5019615;28;208886;-71
2022/12/21 03:44:19;;;;;;;;;;;6.90;99.90;;;;;;5004593;28;19927;-71
2022/12/21 03:47:05;;;;;;;;;;;6.90;99.90;;;;;;4947640;28;208192;-71
2022/12/21 03:49:36;;;;;;;;;;;6.90;99.90;;;;;;5002974;28;19928;-70
2022/12/21 03:52:05;;;;;;;;;;;6.80;99.90;;;;;;4975639;28;150550;-71
2022/12/21 03:54:31;;;;;;;;;;;6.80;99.90;;;;;;5004250;28;19925;-70
2022/12/21 03:56:57;;;;;;;;;;;6.80;99.90;;;;;;4955481;28;175252;-70
2022/12/21 03:59:23;;;;;;;;;;;6.80;99.90;;;;;;5002791;28;19925;-71
2022/12/21 04:01:57;;;;;;;;;;;6.70;99.90;;;;;;4992581;28;169515;-71
2022/12/21 04:04:23;;;;;;;;;;;6.70;99.90;;;;;;5023394;28;19929;-71
2022/12/21 04:06:50;;;;;;;;;;;6.70;99.90;;;;;;4954485;28;181991;-70
2022/12/21 04:09:16;;;;;;;;;;;6.70;99.90;;;;;;5038047;28;19931;-71
2022/12/21 04:14:27;;;;;;;;;;;6.70;99.90;;;;;;5037352;28;19929;-70
2022/12/21 04:16:53;;;;;;;;;;;6.70;99.90;;;;;;4983712;28;176227;-70
2022/12/21 04:22:03;;;;;;;;;;;6.70;99.90;;;;;;5013300;28;156662;-70
2022/12/21 04:29:58;;;;;;;;;;;6.60;99.90;;;;;;5037398;28;205148;-70
2022/12/21 04:32:24;;;;;;;;;;;6.60;99.90;;;;;;5006953;28;19970;-70
2022/12/21 04:34:50;;;;;;;;;;;6.60;99.90;;;;;;5061434;28;20001;-70
2022/12/21 04:37:31;;;;;;;;;;;6.60;99.90;;;;;;5012661;28;142248;-70
2022/12/21 04:39:58;;;;;;;;;;;6.60;99.90;;;;;;5068493;28;220804;-70
2022/12/21 04:42:24;;;;;;;;;;;6.60;99.90;;;;;;4992395;28;19925;-69
2022/12/21 04:44:50;;;;;;;;;;;6.60;99.90;;;;;;5054738;28;19924;-70
2022/12/21 04:47:16;;;;;;;;;;;6.60;99.90;;;;;;4987339;28;212242;-69
2022/12/21 04:49:42;;;;;;;;;;;6.60;99.90;;;;;;5054079;28;19924;-69
2022/12/21 04:52:08;;;;;;;;;;;6.60;99.90;;;;;;4990354;28;210128;-69
2022/12/21 04:54:34;;;;;;;;;;;6.60;99.90;;;;;;5088177;28;19928;-70
2022/12/21 04:57:01;;;;;;;;;;;6.60;99.90;;;;;;4981537;28;208881;-70
2022/12/21 04:59:27;;;;;;;;;;;6.60;99.90;;;;;;5055251;28;19925;-71
2022/12/21 05:01:52;;;;;;;;;;;6.60;99.90;;;;;;5006471;28;209548;-69
2022/12/21 05:04:19;;;;;;;;;;;6.70;99.90;;;;;;5064758;28;19924;-69
2022/12/21 05:06:45;;;;;;;;;;;6.60;99.90;;;;;;4999112;28;159360;-69
2022/12/21 05:09:13;;;;;;;;;;;6.60;99.90;;;;;;5052320;28;20618;-70
2022/12/21 05:11:39;;;;;;;;;;;6.70;99.90;;;;;;5000235;28;193524;-70
2022/12/21 05:14:05;;;;;;;;;;;6.70;99.90;;;;;;5061447;28;20774;-71
2022/12/21 05:16:31;;;;;;;;;;;6.70;99.90;;;;;;4990136;28;146673;-71
2022/12/21 05:18:56;;;;;;;;;;;6.70;99.90;;;;;;5042903;28;19932;-71
2022/12/21 05:21:23;;;;;;;;;;;6.70;99.90;;;;;;4985298;28;209326;-71
2022/12/21 05:23:49;;;;;;;;;;;6.70;99.90;;;;;;5047511;28;20059;-71
2022/12/21 05:26:15;;;;;;;;;;;6.70;99.90;;;;;;5013061;28;39144;-71
2022/12/21 05:28:41;;;;;;;;;;;6.70;99.90;;;;;;5049797;28;20414;-71
2022/12/21 05:31:07;;;;;;;;;;;6.70;99.90;;;;;;5007326;28;153365;-69
2022/12/21 05:33:33;;;;;;;;;;;6.70;99.90;;;;;;5043246;28;20264;-70
2022/12/21 05:36:02;;;;;;;;;;;6.70;99.90;;;;;;5004833;28;171253;-70
2022/12/21 05:38:28;;;;;;;;;;;6.70;99.90;;;;;;5063764;28;19932;-71
2022/12/21 05:40:54;;;;;;;;;;;6.70;99.90;;;;;;5007752;28;209101;-70
2022/12/21 05:43:20;;;;;;;;;;;6.80;99.90;;;;;;5051767;28;19931;-70
2022/12/21 05:45:46;;;;;;;;;;;6.70;99.90;;;;;;5008035;28;208147;-70
2022/12/21 05:48:12;;;;;;;;;;;6.70;99.90;;;;;;5059188;28;19927;-70
2022/12/21 05:50:39;;;;;;;;;;;6.70;99.90;;;;;;5018683;28;209416;-70
2022/12/21 05:53:06;;;;;;;;;;;6.70;99.90;;;;;;5053197;28;19928;-70
2022/12/21 05:55:32;;;;;;;;;;;6.70;99.90;;;;;;4991597;28;157939;-70
2022/12/21 05:57:58;;;;;;;;;;;6.70;99.90;;;;;;5044357;28;19928;-70
2022/12/21 06:00:24;;;;;;;;;;;6.70;99.90;;;;;;5007616;28;153387;-70
2022/12/21 06:02:50;;;;;;;;;;;6.70;99.90;;;;;;5056029;28;20348;-71
2022/12/21 06:05:16;;;;;;;;;;;6.70;99.90;;;;;;5003445;28;190002;-70
2022/12/21 06:07:42;;;;;;;;;;;6.70;99.90;;;;;;5075163;28;19932;-70
2022/12/21 06:10:09;;;;;;;;;;;6.70;99.90;;;;;;5005988;28;207786;-70
2022/12/21 06:12:34;;;;;;;;;;;6.70;99.90;;;;;;5037894;28;20015;-70
2022/12/21 06:15:00;;;;;;;;;;;6.60;99.90;;;;;;5030947;28;207459;-70
2022/12/21 06:17:27;;;;;;;;;;;6.60;99.90;;;;;;5045069;28;20381;-69
2022/12/21 06:19:53;;;;;;;;;;;6.50;99.90;;;;;;5059216;28;208814;-69
2022/12/21 06:22:19;;;;;;;;;;;6.50;99.90;;;;;;4987865;28;155337;-70
2022/12/21 06:24:45;;;;;;;;;;;6.50;99.90;;;;;;5059092;28;19924;-70
2022/12/21 06:27:11;;;;;;;;;;;6.60;99.90;;;;;;4996203;28;145290;-70
2022/12/21 06:29:37;;;;;;;;;;;6.50;99.90;;;;;;5053276;28;19929;-70
2022/12/21 06:32:03;;;;;;;;;;;6.50;99.90;;;;;;4997328;28;162467;-69
2022/12/21 06:34:29;;;;;;;;;;;6.50;99.90;;;;;;5060978;28;19928;-70
2022/12/21 06:36:55;;;;;;;;;;;6.50;99.90;;;;;;5009715;28;212169;-70
2022/12/21 06:39:21;;;;;;;;;;;6.50;99.90;;;;;;5044602;28;19925;-69
2022/12/21 06:41:47;;;;;;;;;;;6.50;99.90;;;;;;5000066;28;202956;-70
2022/12/21 06:44:13;;;;;;;;;;;6.50;99.90;;;;;;5052663;28;19920;-70
2022/12/21 06:46:39;;;;;;;;;;;6.50;99.90;;;;;;4999053;28;208551;-69
2022/12/21 06:49:05;;;;;;;;;;;6.50;99.90;;;;;;5076582;28;21024;-69
2022/12/21 06:51:31;;;;;;;;;;;6.50;99.90;;;;;;4972590;28;155594;-69
2022/12/21 06:53:57;;;;;;;;;;;6.50;99.90;;;;;;5048153;28;19936;-71
2022/12/21 06:56:24;;;;;;;;;;;6.50;99.90;;;;;;4996951;28;160741;-68
2022/12/21 06:58:52;;;;;;;;;;;6.60;99.90;;;;;;5050428;28;19969;-71
2022/12/21 07:01:19;;;;;;;;;;;6.60;99.90;;;;;;4993807;28;208045;-69
2022/12/21 07:03:45;;;;;;;;;;;6.60;99.90;;;;;;5048493;28;19932;-69
2022/12/21 07:06:12;;;;;;;;;;;6.60;99.90;;;;;;4994968;28;206052;-69
2022/12/21 07:08:38;;;;;;;;;;;6.70;99.90;;;;;;5056204;28;19925;-69
2022/12/21 07:11:06;;;;;;;;;;;6.70;99.90;;;;;;4997225;28;214917;-68
2022/12/21 07:13:34;;;;;;;;;;;6.70;99.90;;;;;;5057897;28;19931;-68
2022/12/21 07:16:00;;;;;;;;;;;6.70;99.90;;;;;;5005942;28;178333;-69
2022/12/21 07:18:26;;;;;;;;;;;6.80;99.90;;;;;;5049751;28;20379;-69
2022/12/21 07:20:56;;;;;;;;;;;6.80;99.90;;;;;;5006951;28;160042;-69
2022/12/21 07:23:22;;;;;;;;;;;6.80;99.90;;;;;;5044633;28;19924;-69
2022/12/21 07:25:48;;;;;;;;;;;6.80;99.90;;;;;;4993207;28;213507;-69
2022/12/21 07:28:14;;;;;;;;;;;6.80;99.90;;;;;;5033919;28;19920;-69
2022/12/21 07:30:40;;;;;;;;;;;6.80;99.90;;;;;;4992504;28;207453;-69
2022/12/21 07:33:06;;;;;;;;;;;6.90;99.90;;;;;;5049745;28;20531;-69
2022/12/21 07:35:32;;;;;;;;;;;6.90;99.90;;;;;;5011376;28;173210;-69
2022/12/21 07:37:58;;;;;;;;;;;6.90;99.90;;;;;;5055786;28;19925;-68
2022/12/21 07:40:25;;;;;;;;;;;6.90;99.90;;;;;;5008022;28;154173;-69
2022/12/21 07:42:51;;;;;;;;;;;6.90;99.90;;;;;;5043311;28;20483;-69
2022/12/21 07:45:17;;;;;;;;;;;6.90;99.90;;;;;;5009179;28;207613;-70
2022/12/21 07:47:43;;;;;;;;;;;7.00;99.90;;;;;;5062248;28;19944;-69
2022/12/21 07:50:09;;;;;;;;;;;6.90;99.90;;;;;;4995280;28;208004;-69
2022/12/21 07:52:35;;;;;;;;;;;6.90;99.90;;;;;;5023950;28;20653;-69
2022/12/21 07:55:01;;;;;;;;;;;7.00;99.90;;;;;;5047756;28;216049;-70
2022/12/21 07:57:27;;;;;;;;;;;7.00;99.90;;;;;;5028753;28;19931;-70
2022/12/21 07:59:53;;;;;;;;;;;7.00;99.90;;;;;;5046970;28;207244;-70
2022/12/21 08:02:21;;;;;;;;;;;7.00;99.90;;;;;;5013796;28;111838;-70
2022/12/21 08:04:47;;;;;;;;;;;7.00;99.90;;;;;;5091255;28;19924;-69
2022/12/21 08:07:13;;;;;;;;;;;7.00;99.90;;;;;;4985363;28;150632;-69
2022/12/21 08:09:40;;;;;;;;;;;7.00;99.90;;;;;;5058691;28;20028;-69
2022/12/21 08:12:06;;;;;;;;;;;7.00;99.90;;;;;;4998356;28;206436;-70
2022/12/21 08:14:32;;;;;;;;;;;7.00;99.90;;;;;;5051903;28;20318;-69
2022/12/21 08:16:59;;;;;;;;;;;7.00;99.90;;;;;;4990520;28;205893;-69
2022/12/21 08:19:25;;;;;;;;;;;7.00;99.90;;;;;;5064822;28;19928;-70
2022/12/21 08:21:51;;;;;;;;;;;7.00;99.90;;;;;;5016442;28;83194;-69
2022/12/21 08:24:17;;;;;;;;;;;7.00;99.90;;;;;;5038534;28;19940;-69
2022/12/21 08:26:43;;;;;;;;;;;7.00;99.90;;;;;;4998555;28;124237;-69
2022/12/21 08:29:13;;;;;;;;;;;7.00;99.90;;;;;;5051346;28;19932;-68
2022/12/21 08:31:39;;;;;;;;;;;7.00;99.90;;;;;;5022591;28;130294;-69
2022/12/21 08:34:05;;;;;;;;;;;7.00;99.90;;;;;;5054474;28;20604;-68
2022/12/21 08:36:32;;;;;;;;;;;7.00;99.90;;;;;;5013720;28;163550;-70
2022/12/21 08:38:58;;;;;;;;;;;7.00;99.90;;;;;;5058453;28;19924;-70
2022/12/21 08:41:24;;;;;;;;;;;7.00;99.90;;;;;;4999280;28;208983;-69
2022/12/21 08:43:50;;;;;;;;;;;7.00;99.90;;;;;;5053325;28;19953;-70
2022/12/21 08:46:16;;;;;;;;;;;7.00;99.90;;;;;;4995801;28;208077;-70
2022/12/21 08:48:42;;;;;;;;;;;7.10;99.90;;;;;;5040664;28;19947;-70
2022/12/21 08:51:08;;;;;;;;;;;7.10;99.90;;;;;;4988292;28;136544;-70
2022/12/21 08:53:36;;;;;;;;;;;7.10;99.90;;;;;;5047975;28;20382;-70
2022/12/21 08:56:02;;;;;;;;;;;7.20;99.90;;;;;;5017858;28;209495;-68
2022/12/21 08:58:28;;;;;;;;;;;7.20;99.90;;;;;;5036738;28;19921;-70
2022/12/21 09:00:55;;;;;;;;;;;7.20;99.90;;;;;;4993870;28;202990;-69
2022/12/21 09:03:21;;;;;;;;;;;7.30;99.90;;;;;;5047091;28;19924;-70
2022/12/21 09:05:52;;;;;;;;;;;7.30;99.90;;;;;;4988161;28;206650;-70
2022/12/21 09:08:18;;;;;;;;;;;7.30;99.90;;;;;;5059907;28;19932;-69
2022/12/21 09:10:44;;;;;;;;;;;7.30;99.90;;;;;;4997516;28;208443;-69
2022/12/21 09:13:10;;;;;;;;;;;7.30;99.90;;;;;;5032719;28;19925;-69
2022/12/21 09:15:42;;;;;;;;;;;7.30;99.90;;;;;;5001735;28;160602;-69
2022/12/21 09:18:08;;;;;;;;;;;7.30;99.90;;;;;;5048743;28;20389;-69
2022/12/21 09:20:35;;;;;;;;;;;7.30;99.90;;;;;;5003094;28;213027;-68
2022/12/21 09:23:01;;;;;;;;;;;7.30;99.90;;;;;;5047068;28;20408;-70
2022/12/21 09:25:27;;;;;;;;;;;7.30;99.90;;;;;;5040319;28;171640;-69
2022/12/21 09:27:53;;;;;;;;;;;7.40;99.90;;;;;;5029883;28;20374;-69
2022/12/21 09:30:21;;;;;;;;;;;7.40;99.90;;;;;;5014332;28;212187;-69
2022/12/21 09:32:47;;;;;;;;;;;7.40;99.90;;;;;;5074998;28;19933;-69
2022/12/21 09:35:14;;;;;;;;;;;7.40;99.90;;;;;;4996501;28;207292;-70
2022/12/21 09:37:40;;;;;;;;;;;7.40;99.90;;;;;;5019284;28;19924;-70
2022/12/21 09:40:09;;;;;;;;;;;7.40;99.90;;;;;;5006315;28;222020;-69
2022/12/21 09:42:54;;;;;;;;;;;7.40;99.90;;;;;;5026042;28;19967;-69
2022/12/21 09:45:40;;;;;;;;;;;7.50;99.90;;;;;;5006741;28;208305;-70
2022/12/21 09:48:11;;;;;;;;;;;7.50;99.90;;;;;;5053490;28;19929;-68
2022/12/21 09:50:42;;;;;;;;;;;7.50;99.90;;;;;;5030117;28;190613;-67
2022/12/21 09:53:21;;;;;;;;;;;7.50;99.90;;;;;;5068135;28;20297;-69
2022/12/21 09:55:51;;;;;;;;;;;7.40;99.90;;;;;;5007389;28;173585;-68
2022/12/21 09:58:21;;;;;;;;;;;7.40;99.90;;;;;;5052440;28;19924;-68
2022/12/21 10:00:50;;;;;;;;;;;7.30;99.90;;;;;;4998051;28;206568;-68
2022/12/21 10:03:16;;;;;;;;;;;7.30;99.90;;;;;;5043314;28;20370;-68
2022/12/21 10:06:01;;;;;;;;;;;7.30;99.90;;;;;;4997231;28;208405;-69
2022/12/21 10:08:27;;;;;;;;;;;7.30;99.90;;;;;;5047837;28;19931;-69
2022/12/21 10:10:59;;;;;;;;;;;7.30;99.90;;;;;;4929788;28;1860273;-68
2022/12/21 10:13:37;;;;;;;;;;;7.30;99.90;;;;;;5033413;28;19925;-69
2022/12/21 10:16:12;;;;;;;;;;;7.30;99.90;;;;;;5008672;28;208757;-69
2022/12/21 10:18:38;;;;;;;;;;;7.30;99.90;;;;;;5042937;28;20391;-69
2022/12/21 10:21:20;;;;;;;;;;;7.30;99.90;;;;;;4990720;28;209126;-69
2022/12/21 10:23:51;;;;;;;;;;;7.40;99.90;;;;;;5048086;28;19924;-69
2022/12/21 10:26:19;;;;;;;;;;;7.40;99.90;;;;;;4998407;28;151570;-68
2022/12/21 10:28:48;;;;;;;;;;;7.30;99.90;;;;;;5031083;28;19925;-69
2022/12/21 10:31:24;;;;;;;;;;;7.30;99.90;;;;;;4985816;28;207353;-69
2022/12/21 10:33:50;;;;;;;;;;;7.40;99.90;;;;;;5039932;28;19921;-69
2022/12/21 10:36:17;;;;;;;;;;;7.50;99.90;;;;;;4999774;28;211605;-70
2022/12/21 10:38:44;;;;;;;;;;;7.50;99.90;;;;;;5072979;28;19920;-70
2022/12/21 10:41:27;;;;;;;;;;;7.60;99.90;;;;;;4994818;28;213980;-70
2022/12/21 10:43:54;;;;;;;;;;;7.70;99.90;;;;;;5053206;28;20496;-71
2022/12/21 10:46:21;;;;;;;;;;;7.70;99.90;;;;;;5000599;28;188681;-70
2022/12/21 10:48:49;;;;;;;;;;;7.70;99.90;;;;;;5054450;28;19925;-70
2022/12/21 10:51:34;;;;;;;;;;;7.80;99.90;;;;;;5004198;28;206878;-70
2022/12/21 10:54:10;;;;;;;;;;;7.80;99.90;;;;;;5061423;28;19927;-70
2022/12/21 10:56:46;;;;;;;;;;;7.80;99.90;;;;;;5006843;28;211896;-70
2022/12/21 10:59:21;;;;;;;;;;;7.80;99.90;;;;;;5050299;28;20404;-70
2022/12/21 11:01:48;;;;;;;;;;;7.90;99.90;;;;;;4999054;28;207889;-70
2022/12/21 11:04:16;;;;;;;;;;;7.80;99.90;;;;;;5051615;28;19925;-70
2022/12/21 11:07:05;;;;;;;;;;;7.80;99.90;;;;;;4991745;28;206796;-70
2022/12/21 11:09:35;;;;;;;;;;;7.90;99.90;;;;;;5039805;28;19935;-70
2022/12/21 11:12:17;;;;;;;;;;;7.90;99.90;;;;;;4970385;28;205933;-70
2022/12/21 11:14:43;;;;;;;;;;;7.90;99.90;;;;;;5036478;28;19935;-70
2022/12/21 11:17:20;;;;;;;;;;;7.90;99.90;;;;;;4996159;28;207011;-70
2022/12/21 11:19:47;;;;;;;;;;;8.00;99.90;;;;;;5043460;28;19924;-69
2022/12/21 11:22:14;;;;;;;;;;;7.90;99.90;;;;;;4979141;28;106217;-70
2022/12/21 11:24:41;;;;;;;;;;;7.90;99.90;;;;;;5044441;28;20404;-69
2022/12/21 11:27:10;;;;;;;;;;;8.00;99.90;;;;;;4979950;28;179933;-70
2022/12/21 11:29:46;;;;;;;;;;;8.00;99.90;;;;;;5050762;28;19931;-69
2022/12/21 11:32:13;;;;;;;;;;;8.00;99.90;;;;;;4980967;28;206321;-69
2022/12/21 11:34:39;;;;;;;;;;;8.10;99.90;;;;;;5047997;28;19932;-70
2022/12/21 11:37:07;;;;;;;;;;;8.10;99.90;;;;;;4966165;28;30096;-68
2022/12/21 11:39:33;;;;;;;;;;;8.10;99.90;;;;;;5065236;28;19920;-69
2022/12/21 11:41:59;;;;;;;;;;;8.20;99.90;;;;;;4953491;28;211137;-69
2022/12/21 11:44:26;;;;;;;;;;;8.20;99.90;;;;;;5060887;28;19940;-69
2022/12/21 11:47:04;;;;;;;;;;;8.20;99.90;;;;;;4991870;28;151064;-70
2022/12/21 11:49:49;;;;;;;;;;;8.30;99.90;;;;;;5063615;28;19931;-71
2022/12/21 11:52:24;;;;;;;;;;;8.30;99.90;;;;;;5012322;28;122022;-69
2022/12/21 11:54:50;;;;;;;;;;;8.40;99.90;;;;;;5062287;28;19948;-70
2022/12/21 11:57:35;;;;;;;;;;;8.50;99.90;;;;;;5008198;28;200993;-69
2022/12/21 12:00:03;;;;;;;;;;;8.50;99.90;;;;;;5033003;28;208012;-70
2022/12/21 12:02:42;;;;;;;;;;;8.60;99.90;;;;;;5036273;28;19935;-70
2022/12/21 12:05:08;;;;;;;;;;;8.60;99.90;;;;;;5001497;28;208130;-70
2022/12/21 12:07:43;;;;;;;;;;;8.70;99.90;;;;;;5073529;28;19947;-70
2022/12/21 12:10:28;;;;;;;;;;;8.60;99.90;;;;;;5035911;27;214867;-70
2022/12/21 12:12:57;;;;;;;;;;;8.70;99.90;;;;;;5034634;28;19947;-70
2022/12/21 12:15:31;;;;;;;;;;;8.90;99.90;;;;;;5006904;28;207350;-68
2022/12/21 12:18:16;;;;;;;;;;;9.90;99.90;;;;;;5050087;28;19925;-69
2022/12/21 12:20:56;;;;;;;;;;;11.00;99.90;;;;;;5013893;28;187290;-70
2022/12/21 12:23:22;;;;;;;;;;;11.80;99.90;;;;;;5057763;28;19932;-70
2022/12/21 12:26:09;;;;;;;;;;;12.30;99.90;;;;;;5008833;28;172200;-71
2022/12/21 12:28:38;;;;;;;;;;;12.60;99.90;;;;;;5036633;28;19955;-70
2022/12/21 12:31:22;;;;;;;;;;;12.60;99.90;;;;;;4997703;28;180730;-70
2022/12/21 12:33:48;;;;;;;;;;;12.70;99.90;;;;;;5050766;28;19932;-69
2022/12/21 12:36:33;;;;;;;;;;;13.10;99.90;;;;;;4995962;28;126122;-70
2022/12/21 12:39:10;;;;;;;;;;;13.50;99.90;;;;;;5044122;28;19924;-69
2022/12/21 12:41:55;;;;;;;;;;;13.00;99.90;;;;;;5006278;28;203927;-69
2022/12/21 12:44:21;;;;;;;;;;;12.20;99.90;;;;;;5063934;28;19931;-69
2022/12/21 12:46:52;;;;;;;;;;;11.50;99.90;;;;;;4989993;28;201165;-70
2022/12/21 12:49:26;;;;;;;;;;;11.00;99.90;;;;;;5046454;28;19924;-70
2022/12/21 12:51:58;;;;;;;;;;;10.60;99.90;;;;;;4989422;28;208884;-70
2022/12/21 12:54:43;;;;;;;;;;;10.30;99.90;;;;;;5061822;28;19951;-70
2022/12/21 12:57:32;;;;;;;;;;;10.10;99.90;;;;;;4993285;28;201753;-70
2022/12/21 12:59:58;;;;;;;;;;;10.60;99.90;;;;;;5033945;28;207231;-70
2022/12/21 13:02:42;;;;;;;;;;;10.80;99.90;;;;;;4991642;28;20430;-70
2022/12/21 13:05:08;;;;;;;;;;;11.50;99.90;;;;;;5004618;28;228453;-70
2022/12/21 13:07:39;;;;;;;;;;;12.00;99.90;;;;;;5036734;28;19925;-68
2022/12/21 13:10:08;;;;;;;;;;;12.20;99.90;;;;;;5006725;28;220075;-69
2022/12/21 13:12:37;;;;;;;;;;;12.60;99.90;;;;;;5041792;28;19925;-69
2022/12/21 13:15:19;;;;;;;;;;;11.80;99.90;;;;;;5007214;28;207281;-69
2022/12/21 13:17:51;;;;;;;;;;;11.20;99.90;;;;;;5041698;28;19928;-70
2022/12/21 13:20:18;;;;;;;;;;;10.60;99.90;;;;;;5027383;28;213199;-70
2022/12/21 13:22:48;;;;;;;;;;;10.10;99.90;;;;;;5042026;28;19924;-70
2022/12/21 13:25:25;;;;;;;;;;;9.90;99.90;;;;;;4997861;28;214959;-70
2022/12/21 13:27:53;;;;;;;;;;;9.60;99.90;;;;;;5043594;28;19925;-70
2022/12/21 13:30:20;;;;;;;;;;;9.50;99.90;;;;;;5004482;28;183117;-69
2022/12/21 13:32:48;;;;;;;;;;;9.40;99.90;;;;;;5072893;28;19936;-69
2022/12/21 13:35:17;;;;;;;;;;;9.20;99.90;;;;;;5013868;28;208729;-68
2022/12/21 13:37:44;;;;;;;;;;;9.20;99.90;;;;;;5055033;28;19920;-70
2022/12/21 13:40:33;;;;;;;;;;;9.10;99.90;;;;;;5014990;28;210273;-69
2022/12/21 13:43:08;;;;;;;;;;;9.10;99.90;;;;;;5007233;28;19925;-70
2022/12/21 13:45:34;;;;;;;;;;;9.00;99.90;;;;;;4976840;28;175892;-69
2022/12/21 13:48:00;;;;;;;;;;;8.90;99.90;;;;;;5029333;28;19968;-69
2022/12/21 13:50:38;;;;;;;;;;;8.80;99.90;;;;;;4955142;28;152483;-70
2022/12/21 13:53:03;;;;;;;;;;;8.80;99.90;;;;;;4999165;28;19925;-69
2022/12/21 13:55:46;;;;;;;;;;;8.70;99.90;;;;;;4934893;28;212285;-70
2022/12/21 13:58:25;;;;;;;;;;;8.70;99.90;;;;;;5006633;28;20044;-69
2022/12/21 14:00:54;;;;;;;;;;;8.60;99.90;;;;;;4963073;28;204852;-70
2022/12/21 14:03:23;;;;;;;;;;;8.60;99.90;;;;;;5010992;28;20295;-69
2022/12/21 14:06:09;;;;;;;;;;;8.50;99.90;;;;;;4949907;28;218721;-70
2022/12/21 14:08:35;;;;;;;;;;;8.60;99.90;;;;;;4987742;28;20034;-68
2022/12/21 14:11:07;;;;;;;;;;;8.50;99.90;;;;;;4966946;28;206987;-70
2022/12/21 14:13:46;;;;;;;;;;;8.50;99.90;;;;;;5012674;28;20330;-71
2022/12/21 14:16:28;;;;;;;;;;;8.50;99.90;;;;;;4974456;28;146516;-70
2022/12/21 14:18:56;;;;;;;;;;;8.50;99.90;;;;;;5018759;28;19925;-69
2022/12/21 14:21:29;;;;;;;;;;;8.50;99.90;;;;;;5009768;28;139118;-69
2022/12/21 14:23:58;;;;;;;;;;;8.50;99.90;;;;;;5052267;28;20390;-69
2022/12/21 14:26:36;;;;;;;;;;;8.50;99.90;;;;;;5016734;28;206667;-68
2022/12/21 14:29:17;;;;;;;;;;;8.50;99.90;;;;;;5050082;28;19925;-70
2022/12/21 14:31:56;;;;;;;;;;;8.50;99.90;;;;;;4998075;28;201846;-70
2022/12/21 14:34:23;;;;;;;;;;;8.50;99.90;;;;;;5064054;28;19929;-69
2022/12/21 14:37:07;;;;;;;;;;;8.40;99.90;;;;;;4996393;28;191351;-70
2022/12/21 14:39:38;;;;;;;;;;;8.40;99.90;;;;;;5084138;28;20412;-70
2022/12/21 14:42:23;;;;;;;;;;;8.40;99.90;;;;;;5013701;28;149113;-69
2022/12/21 14:45:07;;;;;;;;;;;8.40;99.90;;;;;;5086548;28;19921;-70
2022/12/21 14:47:33;;;;;;;;;;;8.40;99.90;;;;;;5018209;28;49897;-69
2022/12/21 14:50:20;;;;;;;;;;;8.40;99.90;;;;;;5030390;28;208854;-70
2022/12/21 14:52:55;;;;;;;;;;;8.40;99.90;;;;;;5006756;28;19928;-70